sensor_id;sensor_type;location;lat;lon;timestamp;P1;durP1;ratioP1;P2;durP2;ratioP2
35364;SDS011;21464;48.112;11.530;2024-01-30T00:00:05;6.97;;;5.63;;
35364;SDS011;21464;48.112;11.530;2024-01-30T00:02:32;8.57;;;6.50;;
35364;SDS011;21464;48.112;11.530;2024-01-30T00:04:58;11.60;;;6.97;;
35364;SDS011;21464;48.112;11.530;2024-01-30T00:07:25;10.27;;;6.77;;
35364;SDS011;21464;48.112;11.530;2024-01-30T00:09:51;13.83;;;7.20;;
35364;SDS011;21464;48.112;11.530;2024-01-30T00:12:17;10.43;;;7.60;;
35364;SDS011;21464;48.112;11.530;2024-01-30T00:14:44;11.90;;;7.00;;
35364;SDS011;21464;48.112;11.530;2024-01-30T00:17:10;9.70;;;6.47;;
35364;SDS011;21464;48.112;11.530;2024-01-30T00:19:36;9.33;;;6.77;;
35364;SDS011;21464;48.112;11.530;2024-01-30T00:22:03;9.90;;;6.97;;
35364;SDS011;21464;48.112;11.530;2024-01-30T00:24:29;10.50;;;6.70;;
35364;SDS011;21464;48.112;11.530;2024-01-30T00:26:55;9.67;;;7.00;;
35364;SDS011;21464;48.112;11.530;2024-01-30T00:29:21;10.80;;;7.27;;
35364;SDS011;21464;48.112;11.530;2024-01-30T00:31:48;10.97;;;7.03;;
35364;SDS011;21464;48.112;11.530;2024-01-30T00:34:15;7.73;;;6.77;;
35364;SDS011;21464;48.112;11.530;2024-01-30T00:36:41;9.87;;;7.53;;
35364;SDS011;21464;48.112;11.530;2024-01-30T00:39:07;11.73;;;7.47;;
35364;SDS011;21464;48.112;11.530;2024-01-30T00:41:35;7.67;;;6.20;;
35364;SDS011;21464;48.112;11.530;2024-01-30T00:44:01;11.33;;;7.37;;
35364;SDS011;21464;48.112;11.530;2024-01-30T00:46:28;9.50;;;7.00;;
35364;SDS011;21464;48.112;11.530;2024-01-30T00:48:54;11.37;;;7.33;;
35364;SDS011;21464;48.112;11.530;2024-01-30T00:51:20;10.90;;;7.10;;
35364;SDS011;21464;48.112;11.530;2024-01-30T00:53:46;8.87;;;6.77;;
35364;SDS011;21464;48.112;11.530;2024-01-30T00:56:13;11.27;;;7.23;;
35364;SDS011;21464;48.112;11.530;2024-01-30T00:58:39;8.77;;;6.57;;
35364;SDS011;21464;48.112;11.530;2024-01-30T01:01:06;9.07;;;6.57;;
35364;SDS011;21464;48.112;11.530;2024-01-30T01:03:33;7.83;;;6.30;;
35364;SDS011;21464;48.112;11.530;2024-01-30T01:05:59;8.37;;;6.30;;
35364;SDS011;21464;48.112;11.530;2024-01-30T01:08:26;7.87;;;5.73;;
35364;SDS011;21464;48.112;11.530;2024-01-30T01:10:52;7.00;;;5.80;;
35364;SDS011;21464;48.112;11.530;2024-01-30T01:13:19;9.00;;;5.77;;
35364;SDS011;21464;48.112;11.530;2024-01-30T01:15:45;6.90;;;5.10;;
35364;SDS011;21464;48.112;11.530;2024-01-30T01:18:12;8.63;;;5.83;;
35364;SDS011;21464;48.112;11.530;2024-01-30T01:20:38;11.13;;;6.17;;
35364;SDS011;21464;48.112;11.530;2024-01-30T01:23:04;8.70;;;5.57;;
35364;SDS011;21464;48.112;11.530;2024-01-30T01:25:30;7.30;;;5.93;;
35364;SDS011;21464;48.112;11.530;2024-01-30T01:27:57;8.13;;;5.50;;
35364;SDS011;21464;48.112;11.530;2024-01-30T01:30:23;9.63;;;7.70;;
35364;SDS011;21464;48.112;11.530;2024-01-30T01:32:51;6.53;;;5.30;;
35364;SDS011;21464;48.112;11.530;2024-01-30T01:35:26;4.87;;;4.33;;
35364;SDS011;21464;48.112;11.530;2024-01-30T01:37:53;5.43;;;3.50;;
35364;SDS011;21464;48.112;11.530;2024-01-30T01:40:25;4.93;;;4.10;;
35364;SDS011;21464;48.112;11.530;2024-01-30T01:42:53;5.37;;;4.03;;
35364;SDS011;21464;48.112;11.530;2024-01-30T01:45:20;5.57;;;3.30;;
35364;SDS011;21464;48.112;11.530;2024-01-30T01:47:47;4.60;;;3.50;;
35364;SDS011;21464;48.112;11.530;2024-01-30T01:50:16;6.37;;;4.33;;
35364;SDS011;21464;48.112;11.530;2024-01-30T01:52:48;4.33;;;3.60;;
35364;SDS011;21464;48.112;11.530;2024-01-30T01:55:15;4.57;;;3.50;;
35364;SDS011;21464;48.112;11.530;2024-01-30T01:57:41;5.50;;;3.30;;
35364;SDS011;21464;48.112;11.530;2024-01-30T02:00:08;4.53;;;3.73;;
35364;SDS011;21464;48.112;11.530;2024-01-30T02:02:36;3.93;;;3.40;;
35364;SDS011;21464;48.112;11.530;2024-01-30T02:05:03;4.13;;;3.50;;
35364;SDS011;21464;48.112;11.530;2024-01-30T02:07:30;4.70;;;3.20;;
35364;SDS011;21464;48.112;11.530;2024-01-30T02:09:56;5.90;;;3.40;;
35364;SDS011;21464;48.112;11.530;2024-01-30T02:12:22;3.53;;;3.03;;
35364;SDS011;21464;48.112;11.530;2024-01-30T02:14:50;3.50;;;3.10;;
35364;SDS011;21464;48.112;11.530;2024-01-30T02:17:17;5.47;;;3.47;;
35364;SDS011;21464;48.112;11.530;2024-01-30T02:19:43;5.60;;;3.40;;
35364;SDS011;21464;48.112;11.530;2024-01-30T02:22:10;3.60;;;3.23;;
35364;SDS011;21464;48.112;11.530;2024-01-30T02:24:36;5.57;;;3.03;;
35364;SDS011;21464;48.112;11.530;2024-01-30T02:27:02;3.23;;;2.93;;
35364;SDS011;21464;48.112;11.530;2024-01-30T02:29:29;3.53;;;3.17;;
35364;SDS011;21464;48.112;11.530;2024-01-30T02:31:55;3.40;;;3.20;;
35364;SDS011;21464;48.112;11.530;2024-01-30T02:34:22;4.00;;;3.60;;
35364;SDS011;21464;48.112;11.530;2024-01-30T02:36:48;3.63;;;2.77;;
35364;SDS011;21464;48.112;11.530;2024-01-30T02:39:14;3.60;;;3.30;;
35364;SDS011;21464;48.112;11.530;2024-01-30T02:41:40;3.70;;;3.03;;
35364;SDS011;21464;48.112;11.530;2024-01-30T02:44:07;3.33;;;2.93;;
35364;SDS011;21464;48.112;11.530;2024-01-30T02:46:33;6.17;;;3.20;;
35364;SDS011;21464;48.112;11.530;2024-01-30T02:48:59;4.40;;;3.07;;
35364;SDS011;21464;48.112;11.530;2024-01-30T02:51:25;5.00;;;3.00;;
35364;SDS011;21464;48.112;11.530;2024-01-30T02:53:52;2.73;;;2.50;;
35364;SDS011;21464;48.112;11.530;2024-01-30T02:56:18;2.70;;;2.50;;
35364;SDS011;21464;48.112;11.530;2024-01-30T02:58:44;4.10;;;3.10;;
35364;SDS011;21464;48.112;11.530;2024-01-30T03:01:10;3.23;;;2.80;;
35364;SDS011;21464;48.112;11.530;2024-01-30T03:03:37;3.13;;;2.90;;
35364;SDS011;21464;48.112;11.530;2024-01-30T03:06:03;6.37;;;2.63;;
35364;SDS011;21464;48.112;11.530;2024-01-30T03:08:29;3.17;;;2.93;;
35364;SDS011;21464;48.112;11.530;2024-01-30T03:10:56;3.33;;;2.30;;
35364;SDS011;21464;48.112;11.530;2024-01-30T03:13:22;4.53;;;2.60;;
35364;SDS011;21464;48.112;11.530;2024-01-30T03:15:50;2.83;;;2.50;;
35364;SDS011;21464;48.112;11.530;2024-01-30T03:18:17;3.57;;;2.60;;
35364;SDS011;21464;48.112;11.530;2024-01-30T03:20:43;3.00;;;2.77;;
35364;SDS011;21464;48.112;11.530;2024-01-30T03:23:10;5.13;;;3.60;;
35364;SDS011;21464;48.112;11.530;2024-01-30T03:25:36;4.03;;;3.33;;
35364;SDS011;21464;48.112;11.530;2024-01-30T03:28:02;3.87;;;2.93;;
35364;SDS011;21464;48.112;11.530;2024-01-30T03:30:28;3.73;;;2.90;;
35364;SDS011;21464;48.112;11.530;2024-01-30T03:32:55;3.17;;;2.53;;
35364;SDS011;21464;48.112;11.530;2024-01-30T03:35:21;2.87;;;2.50;;
35364;SDS011;21464;48.112;11.530;2024-01-30T03:37:47;3.53;;;2.90;;
35364;SDS011;21464;48.112;11.530;2024-01-30T03:40:13;3.70;;;2.83;;
35364;SDS011;21464;48.112;11.530;2024-01-30T03:42:41;3.13;;;2.70;;
35364;SDS011;21464;48.112;11.530;2024-01-30T03:45:07;3.33;;;3.07;;
35364;SDS011;21464;48.112;11.530;2024-01-30T03:47:33;2.80;;;2.60;;
35364;SDS011;21464;48.112;11.530;2024-01-30T03:50:00;2.90;;;2.60;;
35364;SDS011;21464;48.112;11.530;2024-01-30T03:52:26;2.73;;;2.50;;
35364;SDS011;21464;48.112;11.530;2024-01-30T03:54:52;3.37;;;2.90;;
35364;SDS011;21464;48.112;11.530;2024-01-30T03:57:18;3.47;;;2.77;;
35364;SDS011;21464;48.112;11.530;2024-01-30T03:59:45;2.77;;;2.40;;
35364;SDS011;21464;48.112;11.530;2024-01-30T04:02:11;3.10;;;2.80;;
35364;SDS011;21464;48.112;11.530;2024-01-30T04:04:37;2.87;;;2.60;;
35364;SDS011;21464;48.112;11.530;2024-01-30T04:07:04;3.10;;;2.80;;
35364;SDS011;21464;48.112;11.530;2024-01-30T04:09:30;2.57;;;2.37;;
35364;SDS011;21464;48.112;11.530;2024-01-30T04:11:58;4.47;;;2.77;;
35364;SDS011;21464;48.112;11.530;2024-01-30T04:14:24;3.57;;;2.93;;
35364;SDS011;21464;48.112;11.530;2024-01-30T04:16:51;3.73;;;2.73;;
35364;SDS011;21464;48.112;11.530;2024-01-30T04:19:17;4.07;;;2.73;;
35364;SDS011;21464;48.112;11.530;2024-01-30T04:21:43;2.83;;;2.53;;
35364;SDS011;21464;48.112;11.530;2024-01-30T04:24:09;4.67;;;3.27;;
35364;SDS011;21464;48.112;11.530;2024-01-30T04:26:35;2.67;;;2.47;;
35364;SDS011;21464;48.112;11.530;2024-01-30T04:29:02;3.60;;;2.60;;
35364;SDS011;21464;48.112;11.530;2024-01-30T04:31:29;2.57;;;2.37;;
35364;SDS011;21464;48.112;11.530;2024-01-30T04:33:55;2.60;;;2.40;;
35364;SDS011;21464;48.112;11.530;2024-01-30T04:36:21;3.13;;;2.23;;
35364;SDS011;21464;48.112;11.530;2024-01-30T04:38:47;3.20;;;2.90;;
35364;SDS011;21464;48.112;11.530;2024-01-30T04:41:14;3.57;;;2.93;;
35364;SDS011;21464;48.112;11.530;2024-01-30T04:43:40;3.73;;;2.43;;
35364;SDS011;21464;48.112;11.530;2024-01-30T04:46:06;4.40;;;2.90;;
35364;SDS011;21464;48.112;11.530;2024-01-30T04:48:33;2.83;;;2.43;;
35364;SDS011;21464;48.112;11.530;2024-01-30T04:50:59;3.60;;;2.43;;
35364;SDS011;21464;48.112;11.530;2024-01-30T04:53:29;2.43;;;2.07;;
35364;SDS011;21464;48.112;11.530;2024-01-30T04:55:56;3.23;;;2.30;;
35364;SDS011;21464;48.112;11.530;2024-01-30T04:58:23;2.43;;;2.23;;
35364;SDS011;21464;48.112;11.530;2024-01-30T05:00:49;3.30;;;2.30;;
35364;SDS011;21464;48.112;11.530;2024-01-30T05:03:18;5.30;;;2.40;;
35364;SDS011;21464;48.112;11.530;2024-01-30T05:05:45;2.10;;;1.97;;
35364;SDS011;21464;48.112;11.530;2024-01-30T05:08:11;3.73;;;2.40;;
35364;SDS011;21464;48.112;11.530;2024-01-30T05:10:38;2.70;;;2.50;;
35364;SDS011;21464;48.112;11.530;2024-01-30T05:13:04;2.17;;;1.97;;
35364;SDS011;21464;48.112;11.530;2024-01-30T05:15:30;2.93;;;2.03;;
35364;SDS011;21464;48.112;11.530;2024-01-30T05:17:56;2.27;;;2.07;;
35364;SDS011;21464;48.112;11.530;2024-01-30T05:20:23;3.23;;;2.30;;
35364;SDS011;21464;48.112;11.530;2024-01-30T05:22:49;2.33;;;2.23;;
35364;SDS011;21464;48.112;11.530;2024-01-30T05:25:15;2.20;;;2.00;;
35364;SDS011;21464;48.112;11.530;2024-01-30T05:27:41;2.60;;;2.40;;
35364;SDS011;21464;48.112;11.530;2024-01-30T05:30:08;2.67;;;2.47;;
35364;SDS011;21464;48.112;11.530;2024-01-30T05:32:35;2.53;;;2.33;;
35364;SDS011;21464;48.112;11.530;2024-01-30T05:35:01;2.60;;;2.40;;
35364;SDS011;21464;48.112;11.530;2024-01-30T05:37:28;3.43;;;2.80;;
35364;SDS011;21464;48.112;11.530;2024-01-30T05:39:54;2.80;;;2.53;;
35364;SDS011;21464;48.112;11.530;2024-01-30T05:42:20;3.73;;;2.70;;
35364;SDS011;21464;48.112;11.530;2024-01-30T05:44:46;4.97;;;3.30;;
35364;SDS011;21464;48.112;11.530;2024-01-30T05:47:13;3.83;;;3.43;;
35364;SDS011;21464;48.112;11.530;2024-01-30T05:49:39;4.30;;;3.67;;
35364;SDS011;21464;48.112;11.530;2024-01-30T05:52:05;4.37;;;3.90;;
35364;SDS011;21464;48.112;11.530;2024-01-30T05:54:32;5.03;;;4.00;;
35364;SDS011;21464;48.112;11.530;2024-01-30T05:56:58;12.30;;;7.83;;
35364;SDS011;21464;48.112;11.530;2024-01-30T05:59:24;14.40;;;8.60;;
35364;SDS011;21464;48.112;11.530;2024-01-30T06:01:50;9.07;;;5.73;;
35364;SDS011;21464;48.112;11.530;2024-01-30T06:04:17;3.73;;;2.97;;
35364;SDS011;21464;48.112;11.530;2024-01-30T06:06:43;4.57;;;3.50;;
35364;SDS011;21464;48.112;11.530;2024-01-30T06:09:09;6.00;;;3.87;;
35364;SDS011;21464;48.112;11.530;2024-01-30T06:11:36;4.93;;;3.33;;
35364;SDS011;21464;48.112;11.530;2024-01-30T06:14:02;3.40;;;3.10;;
35364;SDS011;21464;48.112;11.530;2024-01-30T06:16:28;3.93;;;2.67;;
35364;SDS011;21464;48.112;11.530;2024-01-30T06:18:55;4.93;;;3.33;;
35364;SDS011;21464;48.112;11.530;2024-01-30T06:21:23;3.97;;;2.90;;
35364;SDS011;21464;48.112;11.530;2024-01-30T06:23:49;2.73;;;2.47;;
35364;SDS011;21464;48.112;11.530;2024-01-30T06:26:16;3.90;;;2.80;;
35364;SDS011;21464;48.112;11.530;2024-01-30T06:28:42;4.73;;;2.73;;
35364;SDS011;21464;48.112;11.530;2024-01-30T06:31:08;3.43;;;3.00;;
35364;SDS011;21464;48.112;11.530;2024-01-30T06:36:16;4.17;;;2.90;;
35364;SDS011;21464;48.112;11.530;2024-01-30T06:38:42;4.57;;;2.77;;
35364;SDS011;21464;48.112;11.530;2024-01-30T06:41:09;4.40;;;2.93;;
35364;SDS011;21464;48.112;11.530;2024-01-30T06:43:35;3.83;;;2.80;;
35364;SDS011;21464;48.112;11.530;2024-01-30T06:46:01;4.80;;;3.47;;
35364;SDS011;21464;48.112;11.530;2024-01-30T06:48:28;3.57;;;2.60;;
35364;SDS011;21464;48.112;11.530;2024-01-30T06:50:54;3.33;;;2.70;;
35364;SDS011;21464;48.112;11.530;2024-01-30T06:53:21;2.87;;;2.67;;
35364;SDS011;21464;48.112;11.530;2024-01-30T06:55:47;3.20;;;2.90;;
35364;SDS011;21464;48.112;11.530;2024-01-30T06:58:13;5.90;;;3.13;;
35364;SDS011;21464;48.112;11.530;2024-01-30T07:00:40;3.10;;;2.70;;
35364;SDS011;21464;48.112;11.530;2024-01-30T07:03:06;2.77;;;2.50;;
35364;SDS011;21464;48.112;11.530;2024-01-30T07:05:33;4.50;;;3.60;;
35364;SDS011;21464;48.112;11.530;2024-01-30T07:07:59;6.57;;;4.53;;
35364;SDS011;21464;48.112;11.530;2024-01-30T07:10:25;5.73;;;4.10;;
35364;SDS011;21464;48.112;11.530;2024-01-30T07:12:52;6.60;;;3.80;;
35364;SDS011;21464;48.112;11.530;2024-01-30T07:15:18;4.10;;;3.63;;
35364;SDS011;21464;48.112;11.530;2024-01-30T07:17:46;2.90;;;2.50;;
35364;SDS011;21464;48.112;11.530;2024-01-30T07:20:12;2.40;;;2.20;;
35364;SDS011;21464;48.112;11.530;2024-01-30T07:22:39;4.83;;;2.87;;
35364;SDS011;21464;48.112;11.530;2024-01-30T07:25:06;3.40;;;3.10;;
35364;SDS011;21464;48.112;11.530;2024-01-30T07:27:32;5.83;;;3.00;;
35364;SDS011;21464;48.112;11.530;2024-01-30T07:29:59;8.60;;;5.63;;
35364;SDS011;21464;48.112;11.530;2024-01-30T07:32:25;11.87;;;5.40;;
35364;SDS011;21464;48.112;11.530;2024-01-30T07:34:51;10.47;;;5.63;;
35364;SDS011;21464;48.112;11.530;2024-01-30T07:37:18;12.00;;;5.17;;
35364;SDS011;21464;48.112;11.530;2024-01-30T07:39:45;6.17;;;3.80;;
35364;SDS011;21464;48.112;11.530;2024-01-30T07:42:11;6.37;;;4.67;;
35364;SDS011;21464;48.112;11.530;2024-01-30T07:44:37;6.07;;;4.60;;
35364;SDS011;21464;48.112;11.530;2024-01-30T07:47:04;7.07;;;3.17;;
35364;SDS011;21464;48.112;11.530;2024-01-30T07:49:31;7.27;;;4.70;;
35364;SDS011;21464;48.112;11.530;2024-01-30T07:52:00;31.43;;;15.77;;
35364;SDS011;21464;48.112;11.530;2024-01-30T07:54:26;23.00;;;11.67;;
35364;SDS011;21464;48.112;11.530;2024-01-30T07:56:52;13.67;;;7.47;;
35364;SDS011;21464;48.112;11.530;2024-01-30T07:59:19;13.73;;;7.93;;
35364;SDS011;21464;48.112;11.530;2024-01-30T08:01:47;11.83;;;7.77;;
35364;SDS011;21464;48.112;11.530;2024-01-30T08:04:13;11.10;;;6.93;;
35364;SDS011;21464;48.112;11.530;2024-01-30T08:06:40;7.57;;;4.27;;
35364;SDS011;21464;48.112;11.530;2024-01-30T08:09:06;3.37;;;3.03;;
35364;SDS011;21464;48.112;11.530;2024-01-30T08:11:33;7.03;;;3.60;;
35364;SDS011;21464;48.112;11.530;2024-01-30T08:13:59;3.77;;;2.53;;
35364;SDS011;21464;48.112;11.530;2024-01-30T08:16:25;8.13;;;6.60;;
35364;SDS011;21464;48.112;11.530;2024-01-30T08:18:52;7.70;;;4.47;;
35364;SDS011;21464;48.112;11.530;2024-01-30T08:21:19;5.57;;;3.10;;
35364;SDS011;21464;48.112;11.530;2024-01-30T08:23:45;3.37;;;3.00;;
35364;SDS011;21464;48.112;11.530;2024-01-30T08:26:12;6.50;;;3.70;;
35364;SDS011;21464;48.112;11.530;2024-01-30T08:28:38;5.77;;;3.87;;
35364;SDS011;21464;48.112;11.530;2024-01-30T08:31:04;4.17;;;3.20;;
35364;SDS011;21464;48.112;11.530;2024-01-30T08:33:30;6.23;;;5.17;;
35364;SDS011;21464;48.112;11.530;2024-01-30T08:35:57;3.47;;;3.10;;
35364;SDS011;21464;48.112;11.530;2024-01-30T08:38:23;4.80;;;3.17;;
35364;SDS011;21464;48.112;11.530;2024-01-30T08:40:49;3.87;;;3.10;;
35364;SDS011;21464;48.112;11.530;2024-01-30T08:43:15;7.10;;;3.70;;
35364;SDS011;21464;48.112;11.530;2024-01-30T08:45:42;5.57;;;3.57;;
35364;SDS011;21464;48.112;11.530;2024-01-30T08:48:08;8.77;;;3.50;;
35364;SDS011;21464;48.112;11.530;2024-01-30T08:50:34;7.47;;;3.63;;
35364;SDS011;21464;48.112;11.530;2024-01-30T08:53:01;7.63;;;2.73;;
35364;SDS011;21464;48.112;11.530;2024-01-30T08:55:27;3.93;;;3.27;;
35364;SDS011;21464;48.112;11.530;2024-01-30T08:57:53;8.87;;;4.93;;
35364;SDS011;21464;48.112;11.530;2024-01-30T09:00:20;9.23;;;4.53;;
35364;SDS011;21464;48.112;11.530;2024-01-30T09:02:46;3.73;;;2.50;;
35364;SDS011;21464;48.112;11.530;2024-01-30T09:05:12;5.63;;;3.03;;
35364;SDS011;21464;48.112;11.530;2024-01-30T09:07:39;4.67;;;3.13;;
35364;SDS011;21464;48.112;11.530;2024-01-30T09:10:05;14.93;;;7.40;;
35364;SDS011;21464;48.112;11.530;2024-01-30T09:12:32;8.27;;;3.80;;
35364;SDS011;21464;48.112;11.530;2024-01-30T09:14:58;3.27;;;2.50;;
35364;SDS011;21464;48.112;11.530;2024-01-30T09:17:25;8.27;;;2.30;;
35364;SDS011;21464;48.112;11.530;2024-01-30T09:19:52;4.40;;;2.43;;
35364;SDS011;21464;48.112;11.530;2024-01-30T09:22:18;4.03;;;2.97;;
35364;SDS011;21464;48.112;11.530;2024-01-30T09:24:44;3.23;;;2.70;;
35364;SDS011;21464;48.112;11.530;2024-01-30T09:27:10;6.43;;;4.37;;
35364;SDS011;21464;48.112;11.530;2024-01-30T09:29:37;6.17;;;3.93;;
35364;SDS011;21464;48.112;11.530;2024-01-30T09:32:03;8.17;;;4.30;;
35364;SDS011;21464;48.112;11.530;2024-01-30T09:34:31;2.50;;;2.30;;
35364;SDS011;21464;48.112;11.530;2024-01-30T09:36:58;2.87;;;2.00;;
35364;SDS011;21464;48.112;11.530;2024-01-30T09:39:26;1.57;;;1.47;;
35364;SDS011;21464;48.112;11.530;2024-01-30T09:42:01;2.87;;;1.80;;
35364;SDS011;21464;48.112;11.530;2024-01-30T09:44:28;4.00;;;1.93;;
35364;SDS011;21464;48.112;11.530;2024-01-30T09:46:56;6.57;;;1.87;;
35364;SDS011;21464;48.112;11.530;2024-01-30T09:49:30;2.40;;;2.00;;
35364;SDS011;21464;48.112;11.530;2024-01-30T09:52:00;3.20;;;2.57;;
35364;SDS011;21464;48.112;11.530;2024-01-30T09:54:28;2.27;;;1.90;;
35364;SDS011;21464;48.112;11.530;2024-01-30T09:56:58;4.43;;;1.60;;
35364;SDS011;21464;48.112;11.530;2024-01-30T09:59:24;1.70;;;1.60;;
35364;SDS011;21464;48.112;11.530;2024-01-30T10:01:50;2.20;;;1.70;;
35364;SDS011;21464;48.112;11.530;2024-01-30T10:04:17;6.67;;;2.37;;
35364;SDS011;21464;48.112;11.530;2024-01-30T10:06:44;4.77;;;2.30;;
35364;SDS011;21464;48.112;11.530;2024-01-30T10:09:10;2.33;;;1.57;;
35364;SDS011;21464;48.112;11.530;2024-01-30T10:11:36;3.43;;;2.57;;
35364;SDS011;21464;48.112;11.530;2024-01-30T10:14:03;6.33;;;2.33;;
35364;SDS011;21464;48.112;11.530;2024-01-30T10:16:29;2.63;;;2.10;;
35364;SDS011;21464;48.112;11.530;2024-01-30T10:18:55;3.83;;;2.53;;
35364;SDS011;21464;48.112;11.530;2024-01-30T10:21:22;7.83;;;2.67;;
35364;SDS011;21464;48.112;11.530;2024-01-30T10:23:49;6.37;;;3.20;;
35364;SDS011;21464;48.112;11.530;2024-01-30T10:26:18;6.47;;;3.77;;
35364;SDS011;21464;48.112;11.530;2024-01-30T10:28:45;3.30;;;2.20;;
35364;SDS011;21464;48.112;11.530;2024-01-30T10:31:15;5.87;;;1.77;;
35364;SDS011;21464;48.112;11.530;2024-01-30T10:33:42;3.03;;;2.20;;
35364;SDS011;21464;48.112;11.530;2024-01-30T10:36:09;8.10;;;2.53;;
35364;SDS011;21464;48.112;11.530;2024-01-30T10:38:39;9.03;;;3.40;;
35364;SDS011;21464;48.112;11.530;2024-01-30T10:41:08;3.33;;;2.00;;
35364;SDS011;21464;48.112;11.530;2024-01-30T10:43:40;4.43;;;2.30;;
35364;SDS011;21464;48.112;11.530;2024-01-30T10:48:41;6.13;;;3.03;;
35364;SDS011;21464;48.112;11.530;2024-01-30T10:51:09;1.80;;;1.70;;
35364;SDS011;21464;48.112;11.530;2024-01-30T10:53:36;1.60;;;1.50;;
35364;SDS011;21464;48.112;11.530;2024-01-30T10:56:03;1.90;;;1.70;;
35364;SDS011;21464;48.112;11.530;2024-01-30T10:58:30;2.63;;;1.50;;
35364;SDS011;21464;48.112;11.530;2024-01-30T11:00:56;3.60;;;1.77;;
35364;SDS011;21464;48.112;11.530;2024-01-30T11:03:23;2.80;;;1.87;;
35364;SDS011;21464;48.112;11.530;2024-01-30T11:05:50;3.30;;;1.50;;
35364;SDS011;21464;48.112;11.530;2024-01-30T11:08:24;2.67;;;1.73;;
35364;SDS011;21464;48.112;11.530;2024-01-30T11:10:55;2.67;;;1.60;;
35364;SDS011;21464;48.112;11.530;2024-01-30T11:13:22;2.43;;;2.00;;
35364;SDS011;21464;48.112;11.530;2024-01-30T11:15:48;5.07;;;2.00;;
35364;SDS011;21464;48.112;11.530;2024-01-30T11:18:49;4.93;;;2.80;;
35364;SDS011;21464;48.112;11.530;2024-01-30T11:21:07;2.37;;;2.03;;
35364;SDS011;21464;48.112;11.530;2024-01-30T11:23:34;3.47;;;2.10;;
35364;SDS011;21464;48.112;11.530;2024-01-30T11:26:01;2.00;;;1.80;;
35364;SDS011;21464;48.112;11.530;2024-01-30T11:28:34;3.27;;;1.90;;
35364;SDS011;21464;48.112;11.530;2024-01-30T11:31:04;2.53;;;2.33;;
35364;SDS011;21464;48.112;11.530;2024-01-30T11:33:31;2.63;;;1.77;;
35364;SDS011;21464;48.112;11.530;2024-01-30T11:35:58;3.10;;;1.93;;
35364;SDS011;21464;48.112;11.530;2024-01-30T11:38:26;5.73;;;2.40;;
35364;SDS011;21464;48.112;11.530;2024-01-30T11:40:56;2.33;;;2.13;;
35364;SDS011;21464;48.112;11.530;2024-01-30T11:43:25;2.67;;;2.03;;
35364;SDS011;21464;48.112;11.530;2024-01-30T11:45:51;4.18;;;2.40;;
35364;SDS011;21464;48.112;11.530;2024-01-30T11:48:18;3.27;;;1.90;;
35364;SDS011;21464;48.112;11.530;2024-01-30T11:50:44;2.83;;;2.13;;
35364;SDS011;21464;48.112;11.530;2024-01-30T11:53:10;2.07;;;1.80;;
35364;SDS011;21464;48.112;11.530;2024-01-30T11:55:37;3.83;;;2.28;;
35364;SDS011;21464;48.112;11.530;2024-01-30T11:58:03;4.22;;;2.03;;
35364;SDS011;21464;48.112;11.530;2024-01-30T12:00:30;5.00;;;1.90;;
35364;SDS011;21464;48.112;11.530;2024-01-30T12:02:59;4.90;;;1.80;;
35364;SDS011;21464;48.112;11.530;2024-01-30T12:05:26;4.07;;;1.93;;
35364;SDS011;21464;48.112;11.530;2024-01-30T12:07:53;2.60;;;2.03;;
35364;SDS011;21464;48.112;11.530;2024-01-30T12:10:20;6.53;;;2.20;;
35364;SDS011;21464;48.112;11.530;2024-01-30T12:12:47;3.88;;;2.00;;
35364;SDS011;21464;48.112;11.530;2024-01-30T12:15:15;2.63;;;1.90;;
35364;SDS011;21464;48.112;11.530;2024-01-30T12:17:42;3.20;;;2.17;;
35364;SDS011;21464;48.112;11.530;2024-01-30T12:22:37;4.00;;;3.17;;
35364;SDS011;21464;48.112;11.530;2024-01-30T12:25:05;3.08;;;2.75;;
35364;SDS011;21464;48.112;11.530;2024-01-30T12:27:34;2.40;;;1.98;;
35364;SDS011;21464;48.112;11.530;2024-01-30T12:30:00;3.72;;;1.70;;
35364;SDS011;21464;48.112;11.530;2024-01-30T12:32:27;1.60;;;1.40;;
35364;SDS011;21464;48.112;11.530;2024-01-30T12:34:54;2.47;;;1.90;;
35364;SDS011;21464;48.112;11.530;2024-01-30T12:37:22;3.72;;;1.60;;
35364;SDS011;21464;48.112;11.530;2024-01-30T12:39:53;4.55;;;1.80;;
35364;SDS011;21464;48.112;11.530;2024-01-30T12:42:20;3.25;;;2.05;;
35364;SDS011;21464;48.112;11.530;2024-01-30T12:44:48;2.03;;;1.70;;
35364;SDS011;21464;48.112;11.530;2024-01-30T12:47:15;4.97;;;2.05;;
35364;SDS011;21464;48.112;11.530;2024-01-30T12:49:43;4.57;;;1.90;;
35364;SDS011;21464;48.112;11.530;2024-01-30T12:52:14;3.75;;;2.22;;
35364;SDS011;21464;48.112;11.530;2024-01-30T12:54:42;3.38;;;2.13;;
35364;SDS011;21464;48.112;11.530;2024-01-30T12:57:08;3.47;;;1.95;;
35364;SDS011;21464;48.112;11.530;2024-01-30T12:59:35;4.90;;;1.80;;
35364;SDS011;21464;48.112;11.530;2024-01-30T13:02:01;2.78;;;2.10;;
35364;SDS011;21464;48.112;11.530;2024-01-30T13:04:29;5.07;;;2.20;;
35364;SDS011;21464;48.112;11.530;2024-01-30T13:06:55;3.60;;;2.33;;
35364;SDS011;21464;48.112;11.530;2024-01-30T13:09:22;3.38;;;1.85;;
35364;SDS011;21464;48.112;11.530;2024-01-30T13:11:48;2.08;;;1.70;;
35364;SDS011;21464;48.112;11.530;2024-01-30T13:14:15;3.60;;;1.95;;
35364;SDS011;21464;48.112;11.530;2024-01-30T13:16:41;2.80;;;1.80;;
35364;SDS011;21464;48.112;11.530;2024-01-30T13:19:08;2.17;;;1.98;;
35364;SDS011;21464;48.112;11.530;2024-01-30T13:21:34;1.80;;;1.70;;
35364;SDS011;21464;48.112;11.530;2024-01-30T13:24:00;2.53;;;1.50;;
35364;SDS011;21464;48.112;11.530;2024-01-30T13:26:26;2.55;;;1.60;;
35364;SDS011;21464;48.112;11.530;2024-01-30T13:28:53;2.85;;;1.67;;
35364;SDS011;21464;48.112;11.530;2024-01-30T13:31:19;1.70;;;1.60;;
35364;SDS011;21464;48.112;11.530;2024-01-30T13:33:46;2.67;;;1.55;;
35364;SDS011;21464;48.112;11.530;2024-01-30T13:36:12;3.72;;;1.77;;
35364;SDS011;21464;48.112;11.530;2024-01-30T13:38:38;2.10;;;1.90;;
35364;SDS011;21464;48.112;11.530;2024-01-30T13:41:05;4.53;;;1.77;;
35364;SDS011;21464;48.112;11.530;2024-01-30T13:43:31;2.53;;;1.55;;
35364;SDS011;21464;48.112;11.530;2024-01-30T13:45:57;1.95;;;1.70;;
35364;SDS011;21464;48.112;11.530;2024-01-30T13:48:24;4.88;;;1.70;;
35364;SDS011;21464;48.112;11.530;2024-01-30T13:50:50;2.28;;;1.48;;
35364;SDS011;21464;48.112;11.530;2024-01-30T13:53:16;1.60;;;1.50;;
35364;SDS011;21464;48.112;11.530;2024-01-30T13:55:43;3.72;;;1.70;;
35364;SDS011;21464;48.112;11.530;2024-01-30T13:58:10;2.78;;;1.38;;
35364;SDS011;21464;48.112;11.530;2024-01-30T14:00:36;2.35;;;1.65;;
35364;SDS011;21464;48.112;11.530;2024-01-30T14:03:02;1.63;;;1.52;;
35364;SDS011;21464;48.112;11.530;2024-01-30T14:05:29;1.40;;;1.25;;
35364;SDS011;21464;48.112;11.530;2024-01-30T14:07:56;2.88;;;2.00;;
35364;SDS011;21464;48.112;11.530;2024-01-30T14:10:23;2.35;;;1.50;;
35364;SDS011;21464;48.112;11.530;2024-01-30T14:12:49;1.70;;;1.45;;
35364;SDS011;21464;48.112;11.530;2024-01-30T14:15:19;2.95;;;1.58;;
35364;SDS011;21464;48.112;11.530;2024-01-30T14:17:49;1.50;;;1.40;;
35364;SDS011;21464;48.112;11.530;2024-01-30T14:20:15;2.78;;;1.70;;
35364;SDS011;21464;48.112;11.530;2024-01-30T14:22:50;1.80;;;1.70;;
35364;SDS011;21464;48.112;11.530;2024-01-30T14:25:21;3.28;;;1.95;;
35364;SDS011;21464;48.112;11.530;2024-01-30T14:27:49;2.72;;;1.73;;
35364;SDS011;21464;48.112;11.530;2024-01-30T14:30:25;4.03;;;1.90;;
35364;SDS011;21464;48.112;11.530;2024-01-30T14:32:53;1.85;;;1.75;;
35364;SDS011;21464;48.112;11.530;2024-01-30T14:35:19;7.35;;;1.85;;
35364;SDS011;21464;48.112;11.530;2024-01-30T14:37:46;3.72;;;2.00;;